Date,TemperatureHighF,TemperatureAvgF,TemperatureLowF,DewpointHighF,DewpointAvgF,DewpointLowF,HumidityHigh,HumidityAvg,HumidityLow,PressureMaxIn,PressureMinIn,WindSpeedMaxMPH,WindSpeedAvgMPH,GustSpeedMaxMPH,PrecipitationSumIn
2013-8-1,81,74,64,62,58,54,87,59,40,29.97,29.87,9,4,19,0.07
2013-8-2,84,73,63,69,63,58,93,72,52,29.91,29.80,8,4,12,0.00
2013-8-3,80,70,58,60,55,49,91,62,36,30.09,29.91,10,3,15,0.00
2013-8-4,79,66,51,61,55,48,94,71,39,30.17,30.05,4,1,10,0.00
2013-8-5,72,65,56,67,61,54,97,88,73,30.07,29.81,14,4,20,0.51
2013-8-6,83,73,67,75,70,65,98,91,73,29.85,29.75,9,3,13,0.02
2013-8-7,84,76,62,73,68,60,97,80,52,29.91,29.72,11,5,15,0.01
2013-8-8,79,69,59,66,62,58,97,81,57,29.99,29.90,5,1,10,0.00
2013-8-9,82,70,57,67,62,55,94,76,55,30.02,29.93,7,2,14,0.00
2013-8-10,79,68,55,60,57,52,94,71,43,30.11,30.02,9,2,13,0.00
2013-8-11,81,66,53,71,62,51,95,85,63,30.10,29.97,9,1,12,0.00
2013-8-12,83,74,66,70,65,59,95,76,50,29.98,29.84,9,4,15,0.00
2013-8-13,72,64,52,59,52,48,91,67,44,30.12,29.91,10,4,15,0.00
2013-8-14,76,61,45,58,51,44,96,74,41,30.20,30.09,7,1,9,0.00
2013-8-15,77,64,54,60,55,50,90,74,44,30.13,30.06,6,1,9,0.00
2013-8-16,81,67,51,61,56,49,95,71,39,30.15,30.09,6,1,11,0.00
2013-8-17,81,67,51,62,56,50,96,72,44,30.20,30.11,7,1,11,0.00
2013-8-18,82,68,51,63,57,49,95,73,45,30.18,30.05,6,1,10,0.00
2013-8-19,84,69,54,67,62,52,94,78,52,30.07,29.97,10,3,15,0.00
2013-8-20,86,74,64,70,66,62,94,77,50,30.04,29.95,12,4,15,0.00
2013-8-21,88,78,68,72,69,64,90,75,57,30.00,29.89,13,6,21,0.00
2013-8-22,76,70,62,70,67,61,96,90,78,30.09,29.91,14,3,23,0.58
2013-8-23,82,69,57,65,60,55,99,75,48,30.14,30.06,7,2,13,0.01
2013-8-24,84,71,56,71,64,54,95,78,58,30.20,30.10,8,3,14,0.00
2013-8-25,89,77,68,71,68,64,90,74,50,30.17,30.05,13,6,20,0.00
2013-8-26,90,78,67,76,70,64,91,78,56,30.08,29.92,12,5,17,0.00
2013-8-27,93,82,72,76,73,69,92,76,54,29.93,29.76,15,7,22,0.00
2013-8-28,85,78,70,75,72,68,94,84,71,29.98,29.78,6,2,11,0.00
2013-8-29,88,74,64,73,69,63,98,84,53,30.04,29.91,5,2,10,0.01
2013-8-30,97,81,68,78,72,66,96,77,49,29.92,29.68,17,5,26,2.43
2013-8-31,81,73,66,73,69,65,96,88,75,29.81,29.74,7,3,13,0.00